Franklinton, Louisiana
Current Conditions -  °F | °C
As of 1:35 PM on Friday 28 Nov 2014 (Local Time) from KHDC Reporting Station
Clear Clear  
Wind Chill: 59°   Ceiling: Unl
Heat Index: 59°   Visibility: 10mi
Dew Point: 27°   Wind: 5mph
Humidity: 29%   Direction: 150°SSE
Pressure: 30.34"   Gusts: NA
Location:  30.85°N, 90.15°W
Report Text: KHDC 281935Z AUTO 15004KT 10SM CLR 15/M03 A3034 RMK AO2
Loading
Personal Weather Stations






























Interactive Weather Map New forecast layout! Learn more

10-Day Weather Forecast

Advertisements
Track Severe Weather on mobile